sensor_id;sensor_type;location;lat;lon;timestamp;P1;durP1;ratioP1;P2;durP2;ratioP2
20144;SDS011;10233;50.814;6.590;2023-06-19T00:00:05;5.85;;;4.20;;
20144;SDS011;10233;50.814;6.590;2023-06-19T00:01:12;6.88;;;4.20;;
20144;SDS011;10233;50.814;6.590;2023-06-19T00:02:13;5.65;;;4.32;;
20144;SDS011;10233;50.814;6.590;2023-06-19T00:03:13;5.80;;;4.30;;
20144;SDS011;10233;50.814;6.590;2023-06-19T00:04:14;6.80;;;4.30;;
20144;SDS011;10233;50.814;6.590;2023-06-19T00:05:14;5.22;;;4.20;;
20144;SDS011;10233;50.814;6.590;2023-06-19T00:06:14;8.60;;;4.33;;
20144;SDS011;10233;50.814;6.590;2023-06-19T00:07:15;5.93;;;4.33;;
20144;SDS011;10233;50.814;6.590;2023-06-19T00:08:15;5.25;;;4.30;;
20144;SDS011;10233;50.814;6.590;2023-06-19T00:09:16;6.18;;;4.30;;
20144;SDS011;10233;50.814;6.590;2023-06-19T00:10:17;8.68;;;4.15;;
20144;SDS011;10233;50.814;6.590;2023-06-19T00:11:18;6.20;;;4.32;;
20144;SDS011;10233;50.814;6.590;2023-06-19T00:12:18;6.15;;;3.97;;
20144;SDS011;10233;50.814;6.590;2023-06-19T00:13:18;5.40;;;3.90;;
20144;SDS011;10233;50.814;6.590;2023-06-19T00:14:19;6.60;;;4.38;;
20144;SDS011;10233;50.814;6.590;2023-06-19T00:15:19;6.47;;;4.38;;
20144;SDS011;10233;50.814;6.590;2023-06-19T00:16:20;5.97;;;4.07;;
20144;SDS011;10233;50.814;6.590;2023-06-19T00:17:20;5.75;;;4.20;;
20144;SDS011;10233;50.814;6.590;2023-06-19T00:18:21;6.63;;;4.05;;
20144;SDS011;10233;50.814;6.590;2023-06-19T00:19:22;7.50;;;4.50;;
20144;SDS011;10233;50.814;6.590;2023-06-19T00:20:22;5.93;;;4.07;;
20144;SDS011;10233;50.814;6.590;2023-06-19T00:21:25;5.57;;;4.30;;
20144;SDS011;10233;50.814;6.590;2023-06-19T00:22:25;6.40;;;4.30;;
20144;SDS011;10233;50.814;6.590;2023-06-19T00:23:26;6.77;;;4.40;;
20144;SDS011;10233;50.814;6.590;2023-06-19T00:24:26;5.77;;;3.80;;
20144;SDS011;10233;50.814;6.590;2023-06-19T00:25:27;7.07;;;4.22;;
20144;SDS011;10233;50.814;6.590;2023-06-19T00:26:27;7.27;;;4.20;;
20144;SDS011;10233;50.814;6.590;2023-06-19T00:27:28;5.00;;;4.10;;
20144;SDS011;10233;50.814;6.590;2023-06-19T00:28:28;11.43;;;4.38;;
20144;SDS011;10233;50.814;6.590;2023-06-19T00:29:29;5.90;;;3.67;;
20144;SDS011;10233;50.814;6.590;2023-06-19T00:30:31;7.03;;;4.20;;
20144;SDS011;10233;50.814;6.590;2023-06-19T00:31:32;6.22;;;4.10;;
20144;SDS011;10233;50.814;6.590;2023-06-19T00:32:33;8.20;;;3.95;;
20144;SDS011;10233;50.814;6.590;2023-06-19T00:33:45;5.18;;;3.67;;
20144;SDS011;10233;50.814;6.590;2023-06-19T00:34:47;7.07;;;3.97;;
20144;SDS011;10233;50.814;6.590;2023-06-19T00:35:51;6.80;;;3.90;;
20144;SDS011;10233;50.814;6.590;2023-06-19T00:36:52;5.13;;;3.83;;
20144;SDS011;10233;50.814;6.590;2023-06-19T00:37:56;7.35;;;4.20;;
20144;SDS011;10233;50.814;6.590;2023-06-19T00:38:56;6.03;;;3.80;;
20144;SDS011;10233;50.814;6.590;2023-06-19T00:39:58;4.43;;;3.85;;
20144;SDS011;10233;50.814;6.590;2023-06-19T00:40:58;5.70;;;3.93;;
20144;SDS011;10233;50.814;6.590;2023-06-19T00:41:59;5.57;;;3.90;;
20144;SDS011;10233;50.814;6.590;2023-06-19T00:43:01;7.57;;;3.87;;
20144;SDS011;10233;50.814;6.590;2023-06-19T00:44:03;6.97;;;3.85;;
20144;SDS011;10233;50.814;6.590;2023-06-19T00:45:03;5.80;;;3.80;;
20144;SDS011;10233;50.814;6.590;2023-06-19T00:46:04;7.43;;;3.65;;
20144;SDS011;10233;50.814;6.590;2023-06-19T00:47:06;4.57;;;3.53;;
20144;SDS011;10233;50.814;6.590;2023-06-19T00:48:06;6.27;;;3.87;;
20144;SDS011;10233;50.814;6.590;2023-06-19T00:49:08;4.60;;;3.50;;
20144;SDS011;10233;50.814;6.590;2023-06-19T00:50:09;4.80;;;3.53;;
20144;SDS011;10233;50.814;6.590;2023-06-19T00:51:10;4.38;;;3.30;;
20144;SDS011;10233;50.814;6.590;2023-06-19T00:52:10;6.88;;;3.97;;
20144;SDS011;10233;50.814;6.590;2023-06-19T00:53:11;7.50;;;3.77;;
20144;SDS011;10233;50.814;6.590;2023-06-19T00:54:12;5.07;;;3.85;;
20144;SDS011;10233;50.814;6.590;2023-06-19T00:55:13;5.20;;;3.83;;
20144;SDS011;10233;50.814;6.590;2023-06-19T00:56:16;8.07;;;3.90;;
20144;SDS011;10233;50.814;6.590;2023-06-19T00:57:18;6.13;;;3.47;;
20144;SDS011;10233;50.814;6.590;2023-06-19T00:58:19;4.95;;;3.70;;
20144;SDS011;10233;50.814;6.590;2023-06-19T00:59:20;4.97;;;3.72;;
20144;SDS011;10233;50.814;6.590;2023-06-19T01:00:22;7.72;;;3.80;;
20144;SDS011;10233;50.814;6.590;2023-06-19T01:01:22;4.78;;;3.60;;
20144;SDS011;10233;50.814;6.590;2023-06-19T01:02:24;5.47;;;3.43;;
20144;SDS011;10233;50.814;6.590;2023-06-19T01:03:25;4.35;;;3.60;;
20144;SDS011;10233;50.814;6.590;2023-06-19T01:04:26;4.80;;;3.80;;
20144;SDS011;10233;50.814;6.590;2023-06-19T01:05:26;5.13;;;4.00;;
20144;SDS011;10233;50.814;6.590;2023-06-19T01:06:27;5.93;;;3.47;;
20144;SDS011;10233;50.814;6.590;2023-06-19T01:07:43;6.40;;;4.22;;
20144;SDS011;10233;50.814;6.590;2023-06-19T01:08:54;5.17;;;3.67;;
20144;SDS011;10233;50.814;6.590;2023-06-19T01:09:59;5.25;;;3.90;;
20144;SDS011;10233;50.814;6.590;2023-06-19T01:11:06;5.70;;;3.63;;
20144;SDS011;10233;50.814;6.590;2023-06-19T01:12:15;7.85;;;3.97;;
20144;SDS011;10233;50.814;6.590;2023-06-19T01:14:41;4.82;;;4.03;;
20144;SDS011;10233;50.814;6.590;2023-06-19T01:15:51;5.20;;;4.20;;
20144;SDS011;10233;50.814;6.590;2023-06-19T01:16:53;6.43;;;4.43;;
20144;SDS011;10233;50.814;6.590;2023-06-19T01:17:55;6.32;;;4.18;;
20144;SDS011;10233;50.814;6.590;2023-06-19T01:18:58;5.57;;;4.05;;
20144;SDS011;10233;50.814;6.590;2023-06-19T01:19:59;5.40;;;4.30;;
20144;SDS011;10233;50.814;6.590;2023-06-19T01:21:10;7.38;;;4.15;;
20144;SDS011;10233;50.814;6.590;2023-06-19T01:23:27;5.93;;;3.95;;
20144;SDS011;10233;50.814;6.590;2023-06-19T01:24:28;8.18;;;4.00;;
20144;SDS011;10233;50.814;6.590;2023-06-19T01:25:29;6.30;;;4.00;;
20144;SDS011;10233;50.814;6.590;2023-06-19T01:26:29;5.45;;;4.03;;
20144;SDS011;10233;50.814;6.590;2023-06-19T01:27:31;6.47;;;4.40;;
20144;SDS011;10233;50.814;6.590;2023-06-19T01:28:36;5.47;;;4.00;;
20144;SDS011;10233;50.814;6.590;2023-06-19T01:29:39;4.47;;;3.95;;
20144;SDS011;10233;50.814;6.590;2023-06-19T01:30:40;7.30;;;4.20;;
20144;SDS011;10233;50.814;6.590;2023-06-19T01:32:56;6.17;;;4.17;;
20144;SDS011;10233;50.814;6.590;2023-06-19T01:34:04;5.32;;;4.10;;
20144;SDS011;10233;50.814;6.590;2023-06-19T01:35:08;7.53;;;4.00;;
20144;SDS011;10233;50.814;6.590;2023-06-19T01:36:09;5.43;;;4.20;;
20144;SDS011;10233;50.814;6.590;2023-06-19T01:37:11;5.90;;;3.90;;
20144;SDS011;10233;50.814;6.590;2023-06-19T01:38:13;6.45;;;4.30;;
20144;SDS011;10233;50.814;6.590;2023-06-19T01:39:15;5.55;;;4.20;;
20144;SDS011;10233;50.814;6.590;2023-06-19T01:40:17;6.15;;;4.43;;
20144;SDS011;10233;50.814;6.590;2023-06-19T01:41:21;6.37;;;4.20;;
20144;SDS011;10233;50.814;6.590;2023-06-19T01:42:24;6.30;;;4.43;;
20144;SDS011;10233;50.814;6.590;2023-06-19T01:43:27;6.03;;;4.28;;
20144;SDS011;10233;50.814;6.590;2023-06-19T01:44:30;4.72;;;4.20;;
20144;SDS011;10233;50.814;6.590;2023-06-19T01:45:31;5.50;;;4.40;;
20144;SDS011;10233;50.814;6.590;2023-06-19T01:46:34;7.43;;;4.22;;
20144;SDS011;10233;50.814;6.590;2023-06-19T01:47:37;6.80;;;4.28;;
20144;SDS011;10233;50.814;6.590;2023-06-19T01:48:38;6.50;;;4.33;;
20144;SDS011;10233;50.814;6.590;2023-06-19T01:49:40;6.60;;;4.28;;
20144;SDS011;10233;50.814;6.590;2023-06-19T01:50:44;6.25;;;4.22;;
20144;SDS011;10233;50.814;6.590;2023-06-19T01:51:46;6.40;;;4.55;;
20144;SDS011;10233;50.814;6.590;2023-06-19T01:52:46;6.00;;;4.07;;
20144;SDS011;10233;50.814;6.590;2023-06-19T01:53:47;6.70;;;4.13;;
20144;SDS011;10233;50.814;6.590;2023-06-19T01:54:47;4.93;;;4.30;;
20144;SDS011;10233;50.814;6.590;2023-06-19T01:55:48;5.47;;;4.07;;
20144;SDS011;10233;50.814;6.590;2023-06-19T01:56:49;5.93;;;4.18;;
20144;SDS011;10233;50.814;6.590;2023-06-19T01:57:49;7.77;;;4.70;;
20144;SDS011;10233;50.814;6.590;2023-06-19T01:58:50;7.57;;;4.25;;
20144;SDS011;10233;50.814;6.590;2023-06-19T01:59:50;7.75;;;4.68;;
20144;SDS011;10233;50.814;6.590;2023-06-19T02:00:51;6.23;;;4.57;;
20144;SDS011;10233;50.814;6.590;2023-06-19T02:01:51;5.53;;;4.20;;
20144;SDS011;10233;50.814;6.590;2023-06-19T02:02:52;7.30;;;4.47;;
20144;SDS011;10233;50.814;6.590;2023-06-19T02:03:52;7.20;;;4.43;;
20144;SDS011;10233;50.814;6.590;2023-06-19T02:04:53;5.82;;;4.40;;
20144;SDS011;10233;50.814;6.590;2023-06-19T02:05:53;5.95;;;4.05;;
20144;SDS011;10233;50.814;6.590;2023-06-19T02:06:54;6.00;;;4.40;;
20144;SDS011;10233;50.814;6.590;2023-06-19T02:07:55;5.93;;;4.22;;
20144;SDS011;10233;50.814;6.590;2023-06-19T02:08:56;5.80;;;4.18;;
20144;SDS011;10233;50.814;6.590;2023-06-19T02:09:56;7.17;;;4.60;;
20144;SDS011;10233;50.814;6.590;2023-06-19T02:10:57;7.05;;;4.32;;
20144;SDS011;10233;50.814;6.590;2023-06-19T02:11:57;4.63;;;4.00;;
20144;SDS011;10233;50.814;6.590;2023-06-19T02:12:59;5.50;;;4.28;;
20144;SDS011;10233;50.814;6.590;2023-06-19T02:14:00;5.30;;;4.20;;
20144;SDS011;10233;50.814;6.590;2023-06-19T02:15:00;5.60;;;4.47;;
20144;SDS011;10233;50.814;6.590;2023-06-19T02:16:01;5.65;;;4.47;;
20144;SDS011;10233;50.814;6.590;2023-06-19T02:17:02;6.38;;;4.07;;
20144;SDS011;10233;50.814;6.590;2023-06-19T02:18:02;8.00;;;4.47;;
20144;SDS011;10233;50.814;6.590;2023-06-19T02:19:03;7.53;;;4.63;;
20144;SDS011;10233;50.814;6.590;2023-06-19T02:20:04;7.05;;;4.55;;
20144;SDS011;10233;50.814;6.590;2023-06-19T02:21:09;6.57;;;4.40;;
20144;SDS011;10233;50.814;6.590;2023-06-19T02:22:10;10.03;;;4.10;;
20144;SDS011;10233;50.814;6.590;2023-06-19T02:23:11;5.78;;;4.15;;
20144;SDS011;10233;50.814;6.590;2023-06-19T02:24:11;6.50;;;4.30;;
20144;SDS011;10233;50.814;6.590;2023-06-19T02:25:12;5.63;;;4.28;;
20144;SDS011;10233;50.814;6.590;2023-06-19T02:26:17;5.85;;;4.20;;
20144;SDS011;10233;50.814;6.590;2023-06-19T02:27:19;7.57;;;4.50;;
20144;SDS011;10233;50.814;6.590;2023-06-19T02:28:19;6.78;;;4.00;;
20144;SDS011;10233;50.814;6.590;2023-06-19T02:29:20;7.77;;;4.50;;
20144;SDS011;10233;50.814;6.590;2023-06-19T02:30:21;6.45;;;4.30;;
20144;SDS011;10233;50.814;6.590;2023-06-19T02:31:21;7.37;;;4.47;;
20144;SDS011;10233;50.814;6.590;2023-06-19T02:32:22;6.78;;;4.03;;
20144;SDS011;10233;50.814;6.590;2023-06-19T02:33:23;6.00;;;4.40;;
20144;SDS011;10233;50.814;6.590;2023-06-19T02:34:23;7.47;;;4.40;;
20144;SDS011;10233;50.814;6.590;2023-06-19T02:35:24;6.60;;;4.20;;
20144;SDS011;10233;50.814;6.590;2023-06-19T02:36:24;5.47;;;4.23;;
20144;SDS011;10233;50.814;6.590;2023-06-19T02:37:26;7.23;;;4.40;;
20144;SDS011;10233;50.814;6.590;2023-06-19T02:38:26;6.35;;;4.72;;
20144;SDS011;10233;50.814;6.590;2023-06-19T02:39:26;6.83;;;4.27;;
20144;SDS011;10233;50.814;6.590;2023-06-19T02:40:27;7.97;;;4.17;;
20144;SDS011;10233;50.814;6.590;2023-06-19T02:41:27;5.38;;;4.03;;
20144;SDS011;10233;50.814;6.590;2023-06-19T02:42:28;6.67;;;4.67;;
20144;SDS011;10233;50.814;6.590;2023-06-19T02:43:30;5.90;;;4.57;;
20144;SDS011;10233;50.814;6.590;2023-06-19T02:44:30;6.38;;;4.38;;
20144;SDS011;10233;50.814;6.590;2023-06-19T02:45:31;6.53;;;4.27;;
20144;SDS011;10233;50.814;6.590;2023-06-19T02:46:31;7.40;;;4.47;;
20144;SDS011;10233;50.814;6.590;2023-06-19T02:47:32;4.75;;;3.80;;
20144;SDS011;10233;50.814;6.590;2023-06-19T02:48:33;5.22;;;4.00;;
20144;SDS011;10233;50.814;6.590;2023-06-19T02:49:33;5.47;;;4.25;;
20144;SDS011;10233;50.814;6.590;2023-06-19T02:50:34;5.53;;;4.10;;
20144;SDS011;10233;50.814;6.590;2023-06-19T02:51:34;5.87;;;4.20;;
20144;SDS011;10233;50.814;6.590;2023-06-19T02:52:35;6.40;;;4.40;;
20144;SDS011;10233;50.814;6.590;2023-06-19T02:53:36;6.15;;;4.20;;
20144;SDS011;10233;50.814;6.590;2023-06-19T02:54:36;5.72;;;4.40;;
20144;SDS011;10233;50.814;6.590;2023-06-19T02:55:37;7.85;;;4.18;;
20144;SDS011;10233;50.814;6.590;2023-06-19T02:56:37;5.50;;;4.43;;
20144;SDS011;10233;50.814;6.590;2023-06-19T02:57:38;7.03;;;4.57;;
20144;SDS011;10233;50.814;6.590;2023-06-19T02:58:39;6.38;;;4.63;;
20144;SDS011;10233;50.814;6.590;2023-06-19T02:59:39;7.07;;;4.30;;
20144;SDS011;10233;50.814;6.590;2023-06-19T03:00:40;8.20;;;4.83;;
20144;SDS011;10233;50.814;6.590;2023-06-19T03:01:40;6.20;;;4.70;;
20144;SDS011;10233;50.814;6.590;2023-06-19T03:02:41;6.45;;;4.70;;
20144;SDS011;10233;50.814;6.590;2023-06-19T03:03:41;6.47;;;4.35;;
20144;SDS011;10233;50.814;6.590;2023-06-19T03:04:42;6.60;;;4.17;;
20144;SDS011;10233;50.814;6.590;2023-06-19T03:05:43;6.77;;;4.37;;
20144;SDS011;10233;50.814;6.590;2023-06-19T03:06:43;6.15;;;4.15;;
20144;SDS011;10233;50.814;6.590;2023-06-19T03:07:45;6.15;;;4.35;;
20144;SDS011;10233;50.814;6.590;2023-06-19T03:08:46;4.90;;;4.20;;
20144;SDS011;10233;50.814;6.590;2023-06-19T03:09:46;5.87;;;4.47;;
20144;SDS011;10233;50.814;6.590;2023-06-19T03:10:48;6.05;;;4.30;;
20144;SDS011;10233;50.814;6.590;2023-06-19T03:11:48;6.03;;;4.20;;
20144;SDS011;10233;50.814;6.590;2023-06-19T03:12:49;7.53;;;4.20;;
20144;SDS011;10233;50.814;6.590;2023-06-19T03:13:51;6.40;;;4.50;;
20144;SDS011;10233;50.814;6.590;2023-06-19T03:14:53;6.30;;;4.60;;
20144;SDS011;10233;50.814;6.590;2023-06-19T03:15:53;4.93;;;4.18;;
20144;SDS011;10233;50.814;6.590;2023-06-19T03:16:54;6.73;;;4.67;;
20144;SDS011;10233;50.814;6.590;2023-06-19T03:17:56;6.90;;;4.20;;
20144;SDS011;10233;50.814;6.590;2023-06-19T03:18:58;6.88;;;4.82;;
20144;SDS011;10233;50.814;6.590;2023-06-19T03:19:59;5.78;;;4.20;;
20144;SDS011;10233;50.814;6.590;2023-06-19T03:21:00;5.50;;;4.00;;
20144;SDS011;10233;50.814;6.590;2023-06-19T03:22:00;5.65;;;4.10;;
20144;SDS011;10233;50.814;6.590;2023-06-19T03:23:01;5.85;;;3.63;;
20144;SDS011;10233;50.814;6.590;2023-06-19T03:24:03;5.03;;;3.63;;
20144;SDS011;10233;50.814;6.590;2023-06-19T03:25:04;4.72;;;3.60;;
20144;SDS011;10233;50.814;6.590;2023-06-19T03:26:04;5.00;;;3.77;;
20144;SDS011;10233;50.814;6.590;2023-06-19T03:27:05;4.88;;;3.38;;
20144;SDS011;10233;50.814;6.590;2023-06-19T03:28:06;5.65;;;3.33;;
20144;SDS011;10233;50.814;6.590;2023-06-19T03:29:08;5.50;;;3.40;;
20144;SDS011;10233;50.814;6.590;2023-06-19T03:30:26;7.15;;;3.30;;
20144;SDS011;10233;50.814;6.590;2023-06-19T03:31:26;4.93;;;3.20;;
20144;SDS011;10233;50.814;6.590;2023-06-19T03:32:27;4.20;;;3.25;;
20144;SDS011;10233;50.814;6.590;2023-06-19T03:33:28;5.20;;;3.20;;
20144;SDS011;10233;50.814;6.590;2023-06-19T03:34:29;7.45;;;3.65;;
20144;SDS011;10233;50.814;6.590;2023-06-19T03:35:32;4.60;;;3.20;;
20144;SDS011;10233;50.814;6.590;2023-06-19T03:36:32;4.13;;;3.40;;
20144;SDS011;10233;50.814;6.590;2023-06-19T03:37:40;4.57;;;3.38;;
20144;SDS011;10233;50.814;6.590;2023-06-19T03:38:40;4.07;;;3.20;;
20144;SDS011;10233;50.814;6.590;2023-06-19T03:39:43;6.70;;;3.30;;
20144;SDS011;10233;50.814;6.590;2023-06-19T03:40:45;5.40;;;3.15;;
20144;SDS011;10233;50.814;6.590;2023-06-19T03:41:46;4.43;;;3.33;;
20144;SDS011;10233;50.814;6.590;2023-06-19T03:42:47;6.03;;;3.38;;
20144;SDS011;10233;50.814;6.590;2023-06-19T03:43:50;6.15;;;3.50;;
20144;SDS011;10233;50.814;6.590;2023-06-19T03:44:51;4.40;;;3.15;;
20144;SDS011;10233;50.814;6.590;2023-06-19T03:45:51;4.78;;;3.25;;
20144;SDS011;10233;50.814;6.590;2023-06-19T03:46:52;3.73;;;3.17;;
20144;SDS011;10233;50.814;6.590;2023-06-19T03:47:52;4.20;;;3.10;;
20144;SDS011;10233;50.814;6.590;2023-06-19T03:48:54;5.30;;;3.10;;
20144;SDS011;10233;50.814;6.590;2023-06-19T03:49:54;4.63;;;3.05;;
20144;SDS011;10233;50.814;6.590;2023-06-19T03:50:55;4.00;;;3.20;;
20144;SDS011;10233;50.814;6.590;2023-06-19T03:51:55;5.22;;;3.45;;
20144;SDS011;10233;50.814;6.590;2023-06-19T03:52:58;4.65;;;3.00;;
20144;SDS011;10233;50.814;6.590;2023-06-19T03:53:58;5.17;;;3.40;;
20144;SDS011;10233;50.814;6.590;2023-06-19T03:54:59;3.80;;;2.90;;
20144;SDS011;10233;50.814;6.590;2023-06-19T03:55:59;4.20;;;3.30;;
20144;SDS011;10233;50.814;6.590;2023-06-19T03:57:00;4.43;;;3.00;;
20144;SDS011;10233;50.814;6.590;2023-06-19T03:58:00;4.32;;;3.15;;
20144;SDS011;10233;50.814;6.590;2023-06-19T03:59:01;4.50;;;3.27;;
20144;SDS011;10233;50.814;6.590;2023-06-19T04:00:01;5.63;;;3.38;;
20144;SDS011;10233;50.814;6.590;2023-06-19T04:01:12;4.40;;;2.92;;
20144;SDS011;10233;50.814;6.590;2023-06-19T04:02:13;5.32;;;3.13;;
20144;SDS011;10233;50.814;6.590;2023-06-19T04:03:13;5.93;;;3.30;;
20144;SDS011;10233;50.814;6.590;2023-06-19T04:04:14;4.63;;;3.40;;
20144;SDS011;10233;50.814;6.590;2023-06-19T04:05:15;4.73;;;3.30;;
20144;SDS011;10233;50.814;6.590;2023-06-19T04:06:19;5.03;;;3.55;;
20144;SDS011;10233;50.814;6.590;2023-06-19T04:07:20;4.33;;;3.17;;
20144;SDS011;10233;50.814;6.590;2023-06-19T04:08:20;4.43;;;3.10;;
20144;SDS011;10233;50.814;6.590;2023-06-19T04:09:21;4.28;;;3.10;;
20144;SDS011;10233;50.814;6.590;2023-06-19T04:10:21;5.10;;;3.70;;
20144;SDS011;10233;50.814;6.590;2023-06-19T04:11:22;5.07;;;3.20;;
20144;SDS011;10233;50.814;6.590;2023-06-19T04:12:22;4.35;;;3.20;;
20144;SDS011;10233;50.814;6.590;2023-06-19T04:13:23;3.93;;;3.00;;
20144;SDS011;10233;50.814;6.590;2023-06-19T04:14:26;4.18;;;3.40;;
20144;SDS011;10233;50.814;6.590;2023-06-19T04:15:28;3.95;;;3.20;;
20144;SDS011;10233;50.814;6.590;2023-06-19T04:16:29;4.57;;;3.33;;
20144;SDS011;10233;50.814;6.590;2023-06-19T04:17:30;4.07;;;3.20;;
20144;SDS011;10233;50.814;6.590;2023-06-19T04:18:31;4.45;;;3.33;;
20144;SDS011;10233;50.814;6.590;2023-06-19T04:19:31;5.23;;;3.30;;
20144;SDS011;10233;50.814;6.590;2023-06-19T04:20:31;4.80;;;3.33;;
20144;SDS011;10233;50.814;6.590;2023-06-19T04:21:33;5.50;;;3.00;;
20144;SDS011;10233;50.814;6.590;2023-06-19T04:22:34;4.23;;;3.10;;
20144;SDS011;10233;50.814;6.590;2023-06-19T04:23:36;4.50;;;3.05;;
20144;SDS011;10233;50.814;6.590;2023-06-19T04:24:36;4.28;;;2.80;;
20144;SDS011;10233;50.814;6.590;2023-06-19T04:25:37;4.43;;;2.70;;
20144;SDS011;10233;50.814;6.590;2023-06-19T04:26:37;5.37;;;2.90;;
20144;SDS011;10233;50.814;6.590;2023-06-19T04:27:38;4.60;;;2.88;;
20144;SDS011;10233;50.814;6.590;2023-06-19T04:28:39;3.97;;;3.03;;
20144;SDS011;10233;50.814;6.590;2023-06-19T04:29:39;3.67;;;2.75;;
20144;SDS011;10233;50.814;6.590;2023-06-19T04:30:40;4.47;;;2.60;;
20144;SDS011;10233;50.814;6.590;2023-06-19T04:31:40;4.90;;;3.15;;
20144;SDS011;10233;50.814;6.590;2023-06-19T04:32:41;4.45;;;2.78;;
20144;SDS011;10233;50.814;6.590;2023-06-19T04:33:41;3.47;;;2.77;;
20144;SDS011;10233;50.814;6.590;2023-06-19T04:34:42;4.85;;;2.72;;
20144;SDS011;10233;50.814;6.590;2023-06-19T04:35:46;6.25;;;2.78;;
20144;SDS011;10233;50.814;6.590;2023-06-19T04:36:48;4.57;;;2.78;;
20144;SDS011;10233;50.814;6.590;2023-06-19T04:37:49;3.60;;;2.70;;
20144;SDS011;10233;50.814;6.590;2023-06-19T04:38:49;3.60;;;2.50;;
20144;SDS011;10233;50.814;6.590;2023-06-19T04:39:51;4.95;;;3.10;;
20144;SDS011;10233;50.814;6.590;2023-06-19T04:40:52;3.65;;;2.85;;
20144;SDS011;10233;50.814;6.590;2023-06-19T04:41:53;6.22;;;3.47;;
20144;SDS011;10233;50.814;6.590;2023-06-19T04:42:53;3.90;;;2.80;;
20144;SDS011;10233;50.814;6.590;2023-06-19T04:43:55;4.47;;;2.90;;
20144;SDS011;10233;50.814;6.590;2023-06-19T04:44:55;3.80;;;2.85;;
20144;SDS011;10233;50.814;6.590;2023-06-19T04:45:59;4.40;;;2.80;;
20144;SDS011;10233;50.814;6.590;2023-06-19T04:47:00;4.00;;;2.92;;
20144;SDS011;10233;50.814;6.590;2023-06-19T04:48:03;3.83;;;2.67;;
20144;SDS011;10233;50.814;6.590;2023-06-19T04:49:04;4.07;;;3.03;;
20144;SDS011;10233;50.814;6.590;2023-06-19T04:50:07;3.47;;;2.70;;
20144;SDS011;10233;50.814;6.590;2023-06-19T04:51:07;4.22;;;2.83;;
20144;SDS011;10233;50.814;6.590;2023-06-19T04:52:08;3.90;;;2.97;;
20144;SDS011;10233;50.814;6.590;2023-06-19T04:53:08;3.13;;;2.72;;
20144;SDS011;10233;50.814;6.590;2023-06-19T04:54:09;3.57;;;2.67;;
20144;SDS011;10233;50.814;6.590;2023-06-19T04:55:09;3.67;;;2.40;;
20144;SDS011;10233;50.814;6.590;2023-06-19T04:56:10;3.63;;;2.65;;
20144;SDS011;10233;50.814;6.590;2023-06-19T04:57:10;4.00;;;2.47;;
20144;SDS011;10233;50.814;6.590;2023-06-19T04:58:11;3.53;;;2.50;;
20144;SDS011;10233;50.814;6.590;2023-06-19T04:59:11;4.00;;;2.78;;
20144;SDS011;10233;50.814;6.590;2023-06-19T05:00:12;3.93;;;2.43;;
20144;SDS011;10233;50.814;6.590;2023-06-19T05:01:14;2.80;;;2.43;;
20144;SDS011;10233;50.814;6.590;2023-06-19T05:02:15;4.32;;;2.78;;
20144;SDS011;10233;50.814;6.590;2023-06-19T05:03:19;2.90;;;2.40;;
20144;SDS011;10233;50.814;6.590;2023-06-19T05:04:22;2.75;;;2.30;;
20144;SDS011;10233;50.814;6.590;2023-06-19T05:05:23;3.20;;;2.38;;
20144;SDS011;10233;50.814;6.590;2023-06-19T05:06:24;4.10;;;2.57;;
20144;SDS011;10233;50.814;6.590;2023-06-19T05:07:24;3.67;;;2.30;;
20144;SDS011;10233;50.814;6.590;2023-06-19T05:08:25;3.83;;;2.47;;
20144;SDS011;10233;50.814;6.590;2023-06-19T05:09:25;3.03;;;2.33;;
20144;SDS011;10233;50.814;6.590;2023-06-19T05:10:26;4.37;;;2.40;;
20144;SDS011;10233;50.814;6.590;2023-06-19T05:11:26;3.88;;;2.40;;
20144;SDS011;10233;50.814;6.590;2023-06-19T05:12:26;3.63;;;2.30;;
20144;SDS011;10233;50.814;6.590;2023-06-19T05:13:27;2.60;;;2.00;;
20144;SDS011;10233;50.814;6.590;2023-06-19T05:14:27;2.97;;;2.30;;
20144;SDS011;10233;50.814;6.590;2023-06-19T05:15:28;2.77;;;2.20;;
20144;SDS011;10233;50.814;6.590;2023-06-19T05:16:28;4.10;;;2.70;;
20144;SDS011;10233;50.814;6.590;2023-06-19T05:17:29;3.72;;;2.20;;
20144;SDS011;10233;50.814;6.590;2023-06-19T05:18:29;3.40;;;2.60;;
20144;SDS011;10233;50.814;6.590;2023-06-19T05:19:30;2.97;;;2.13;;
20144;SDS011;10233;50.814;6.590;2023-06-19T05:20:31;3.30;;;2.15;;
20144;SDS011;10233;50.814;6.590;2023-06-19T05:21:31;3.67;;;2.07;;
20144;SDS011;10233;50.814;6.590;2023-06-19T05:22:31;3.28;;;1.90;;
20144;SDS011;10233;50.814;6.590;2023-06-19T05:23:34;2.65;;;2.03;;
20144;SDS011;10233;50.814;6.590;2023-06-19T05:24:35;2.97;;;1.98;;
20144;SDS011;10233;50.814;6.590;2023-06-19T05:25:35;3.40;;;2.10;;
20144;SDS011;10233;50.814;6.590;2023-06-19T05:26:36;3.47;;;2.00;;
20144;SDS011;10233;50.814;6.590;2023-06-19T05:27:36;3.17;;;2.08;;
20144;SDS011;10233;50.814;6.590;2023-06-19T05:28:37;3.97;;;2.17;;
20144;SDS011;10233;50.814;6.590;2023-06-19T05:29:37;3.60;;;2.20;;
20144;SDS011;10233;50.814;6.590;2023-06-19T05:30:38;8.27;;;2.40;;
20144;SDS011;10233;50.814;6.590;2023-06-19T05:31:38;2.80;;;2.07;;
20144;SDS011;10233;50.814;6.590;2023-06-19T05:32:38;3.33;;;2.00;;
20144;SDS011;10233;50.814;6.590;2023-06-19T05:33:40;3.78;;;1.95;;
20144;SDS011;10233;50.814;6.590;2023-06-19T05:34:40;3.03;;;1.80;;
20144;SDS011;10233;50.814;6.590;2023-06-19T05:35:41;2.70;;;1.80;;
20144;SDS011;10233;50.814;6.590;2023-06-19T05:36:43;3.72;;;2.83;;
20144;SDS011;10233;50.814;6.590;2023-06-19T05:37:46;3.60;;;2.20;;
20144;SDS011;10233;50.814;6.590;2023-06-19T05:38:46;3.50;;;1.90;;
20144;SDS011;10233;50.814;6.590;2023-06-19T05:39:48;2.30;;;1.95;;
20144;SDS011;10233;50.814;6.590;2023-06-19T05:40:50;2.83;;;1.90;;
20144;SDS011;10233;50.814;6.590;2023-06-19T05:41:50;2.72;;;1.63;;
20144;SDS011;10233;50.814;6.590;2023-06-19T05:42:51;3.20;;;1.83;;
20144;SDS011;10233;50.814;6.590;2023-06-19T05:43:51;4.10;;;1.90;;
20144;SDS011;10233;50.814;6.590;2023-06-19T05:44:52;2.20;;;1.67;;
20144;SDS011;10233;50.814;6.590;2023-06-19T05:45:53;2.20;;;1.63;;
20144;SDS011;10233;50.814;6.590;2023-06-19T05:46:55;2.00;;;1.60;;
20144;SDS011;10233;50.814;6.590;2023-06-19T05:47:56;3.03;;;1.77;;
20144;SDS011;10233;50.814;6.590;2023-06-19T05:48:56;2.50;;;1.70;;
20144;SDS011;10233;50.814;6.590;2023-06-19T05:49:57;1.90;;;1.43;;
20144;SDS011;10233;50.814;6.590;2023-06-19T05:50:57;1.57;;;1.30;;
20144;SDS011;10233;50.814;6.590;2023-06-19T05:51:58;1.70;;;1.30;;
20144;SDS011;10233;50.814;6.590;2023-06-19T05:52:59;2.23;;;1.40;;
20144;SDS011;10233;50.814;6.590;2023-06-19T05:53:59;1.40;;;1.25;;
20144;SDS011;10233;50.814;6.590;2023-06-19T05:55:03;2.33;;;1.50;;
20144;SDS011;10233;50.814;6.590;2023-06-19T05:56:04;1.65;;;1.48;;
20144;SDS011;10233;50.814;6.590;2023-06-19T05:57:05;1.80;;;1.40;;
20144;SDS011;10233;50.814;6.590;2023-06-19T05:58:06;1.97;;;1.40;;
20144;SDS011;10233;50.814;6.590;2023-06-19T05:59:07;2.03;;;1.30;;
20144;SDS011;10233;50.814;6.590;2023-06-19T06:00:07;1.70;;;1.23;;
20144;SDS011;10233;50.814;6.590;2023-06-19T06:01:12;2.88;;;1.10;;
20144;SDS011;10233;50.814;6.590;2023-06-19T06:02:13;1.55;;;1.10;;
20144;SDS011;10233;50.814;6.590;2023-06-19T06:03:13;2.40;;;1.10;;
20144;SDS011;10233;50.814;6.590;2023-06-19T06:04:14;1.83;;;1.30;;
20144;SDS011;10233;50.814;6.590;2023-06-19T06:05:15;1.67;;;1.15;;
20144;SDS011;10233;50.814;6.590;2023-06-19T06:06:17;1.50;;;1.20;;
20144;SDS011;10233;50.814;6.590;2023-06-19T06:07:18;2.40;;;1.10;;
20144;SDS011;10233;50.814;6.590;2023-06-19T06:08:18;1.20;;;1.00;;
20144;SDS011;10233;50.814;6.590;2023-06-19T06:09:18;2.20;;;1.50;;
20144;SDS011;10233;50.814;6.590;2023-06-19T06:10:20;1.80;;;1.17;;
20144;SDS011;10233;50.814;6.590;2023-06-19T06:11:21;2.83;;;1.00;;
20144;SDS011;10233;50.814;6.590;2023-06-19T06:12:22;1.92;;;1.00;;
20144;SDS011;10233;50.814;6.590;2023-06-19T06:13:23;1.75;;;1.00;;